Terminal Aerodrome Forecast
Issued by NWS Detroit/Pontiac, MI

Home | Current Version | Previous Version | Text Only | Print | Product List | Glossary On
Versions: 1 2 3 4 5 6 7 8 9 10 11 12 13 14 15 16 17 18 19 20 21 22 23 24 25 26 27
000
FTUS43 KDTX 212320
TAFDTW
TAF
KDTW 212320Z 2200/2306 16006KT P6SM SCT150 BKN250
     FM220700 14004KT 4SM BR SCT250
     FM221000 VRB03KT 2SM BR FEW002 SCT050
     FM221400 17006KT P6SM FEW050 SCT250
     FM230400 VRB03KT 4SM BR FEW250=

USA.gov is the U.S. government's official web portal to all federal, state and local government web resources and services.